Time;durP1;ratioP1;P1;durP2;ratioP2;P2;SDS_P1;SDS_P2;PMS_P1;PMS_P2;Temp;Humidity;BMP_temperature;BMP_pressure;BME280_temperature;BME280_humidity;BME280_pressure;Samples;Min_cycle;Max_cycle;Signal;HPM_P1;HPM_P2
2023/01/02 00:00:53;;;;;;;7.45;6.75;;;8.70;99.90;;;;;;5053948;28;20267;-88
2023/01/02 00:03:20;;;;;;;8.15;7.35;;;8.70;99.90;;;;;;5070918;28;20221;-85
2023/01/02 00:05:47;;;;;;;7.97;6.93;;;8.80;99.90;;;;;;5055159;28;20305;-86
2023/01/02 00:08:18;;;;;;;8.32;7.53;;;8.80;99.90;;;;;;5064170;28;20191;-84
2023/01/02 00:10:45;;;;;;;7.63;6.93;;;8.70;99.90;;;;;;5070452;28;20716;-82
2023/01/02 00:13:13;;;;;;;7.70;6.90;;;8.70;99.90;;;;;;5053758;28;20214;-84
2023/01/02 00:15:40;;;;;;;8.82;7.93;;;8.70;99.90;;;;;;5065094;28;20421;-86
2023/01/02 00:18:07;;;;;;;9.10;8.20;;;8.70;99.90;;;;;;5067715;28;20199;-85
2023/01/02 00:20:36;;;;;;;8.35;7.53;;;8.70;99.90;;;;;;5050295;28;20215;-87
2023/01/02 00:23:04;;;;;;;7.72;6.97;;;8.70;99.90;;;;;;5078935;28;20204;-87
2023/01/02 00:25:34;;;;;;;8.25;7.38;;;8.70;99.90;;;;;;5074211;28;20221;-86
2023/01/02 00:28:02;;;;;;;8.15;7.20;;;8.70;99.90;;;;;;5053101;28;20216;-88
2023/01/02 00:30:30;;;;;;;8.80;7.90;;;8.70;99.90;;;;;;5071202;28;20214;-86
2023/01/02 00:32:57;;;;;;;8.30;6.88;;;8.70;99.90;;;;;;5049173;28;20584;-90
2023/01/02 00:35:25;;;;;;;8.02;7.05;;;8.60;99.90;;;;;;5053347;28;20210;-83
2023/01/02 00:37:54;;;;;;;7.85;7.05;;;8.70;99.90;;;;;;5068603;28;20210;-85
2023/01/02 00:40:23;;;;;;;7.97;7.05;;;8.70;99.90;;;;;;5070951;28;20222;-88
2023/01/02 00:42:52;;;;;;;7.55;6.85;;;8.60;99.90;;;;;;5068026;28;20186;-86
2023/01/02 00:45:22;;;;;;;7.90;7.15;;;8.70;99.90;;;;;;5071072;28;20445;-86
2023/01/02 00:47:49;;;;;;;9.13;8.23;;;8.70;99.90;;;;;;5051937;28;20198;-86
2023/01/02 00:50:16;;;;;;;8.38;7.47;;;8.70;99.90;;;;;;5053833;28;20252;-84
2023/01/02 00:52:44;;;;;;;9.75;8.30;;;8.70;99.90;;;;;;5072445;28;20609;-84
2023/01/02 00:55:12;;;;;;;9.60;8.63;;;8.70;99.90;;;;;;5069602;28;20301;-84
2023/01/02 00:57:40;;;;;;;10.10;8.68;;;8.60;99.90;;;;;;5071504;28;20201;-86
2023/01/02 01:00:11;;;;;;;9.20;8.23;;;8.60;99.90;;;;;;5069858;28;20217;-87
2023/01/02 01:02:39;;;;;;;9.55;8.48;;;8.60;99.90;;;;;;5071940;28;20210;-88
2023/01/02 01:05:07;;;;;;;9.43;8.13;;;8.50;99.90;;;;;;5055208;28;20240;-86
2023/01/02 01:07:34;;;;;;;10.32;8.50;;;8.50;99.90;;;;;;5070274;28;20202;-86
2023/01/02 01:10:02;;;;;;;9.02;7.93;;;8.50;99.90;;;;;;5038592;28;20214;-89
2023/01/02 01:12:29;;;;;;;8.18;7.30;;;8.50;99.90;;;;;;5068696;28;20218;-87
2023/01/02 01:14:57;;;;;;;8.23;7.13;;;8.50;99.90;;;;;;5055097;28;20213;-85
2023/01/02 01:17:26;;;;;;;8.77;7.88;;;8.50;99.90;;;;;;5037611;28;20256;-86
2023/01/02 01:19:53;;;;;;;8.95;8.05;;;8.50;99.90;;;;;;5069504;28;20214;-82
2023/01/02 01:22:20;;;;;;;8.00;7.20;;;8.50;99.90;;;;;;5052780;28;21112;-83
2023/01/02 01:24:48;;;;;;;7.53;6.55;;;8.50;99.90;;;;;;5066747;28;20229;-88
2023/01/02 01:27:15;;;;;;;7.20;6.50;;;8.50;99.90;;;;;;5067605;28;20675;-87
2023/01/02 01:29:43;;;;;;;8.70;6.57;;;8.50;99.90;;;;;;5048780;28;20222;-87
2023/01/02 01:32:10;;;;;;;6.97;6.38;;;8.60;99.90;;;;;;5055110;28;20222;-89
2023/01/02 01:34:39;;;;;;;8.05;7.25;;;8.60;99.90;;;;;;5070982;28;20523;-86
2023/01/02 01:37:06;;;;;;;7.68;6.88;;;8.50;99.90;;;;;;5071696;28;20206;-82
2023/01/02 01:39:34;;;;;;;6.68;6.05;;;8.50;99.90;;;;;;5070133;28;20271;-81
2023/01/02 01:42:01;;;;;;;8.52;7.65;;;8.60;99.90;;;;;;5065750;28;20597;-83
2023/01/02 01:44:46;;;;;;;8.80;7.90;;;8.60;99.90;;;;;;5068518;28;20597;-83
2023/01/02 01:47:23;;;;;;;8.07;7.28;;;8.50;99.90;;;;;;5069885;28;20198;-85
2023/01/02 01:49:58;;;;;;;7.72;6.93;;;8.60;99.90;;;;;;5066349;28;20228;-87
2023/01/02 01:52:29;;;;;;;7.15;6.45;;;8.60;99.90;;;;;;5067346;28;20585;-88
2023/01/02 01:55:01;;;;;;;8.40;7.60;;;8.50;99.90;;;;;;5051227;28;20237;-83
2023/01/02 01:57:31;;;;;;;8.07;7.28;;;8.50;99.90;;;;;;5067766;28;20275;-84
2023/01/02 02:00:02;;;;;;;7.95;7.15;;;8.50;99.90;;;;;;5064059;28;20217;-82
2023/01/02 02:02:31;;;;;;;8.43;7.57;;;8.50;99.90;;;;;;5052962;28;20191;-86
2023/01/02 02:05:02;;;;;;;7.95;7.18;;;8.50;99.90;;;;;;5046803;28;20217;-87
2023/01/02 02:07:30;;;;;;;7.03;6.32;;;8.50;99.90;;;;;;5064207;28;20248;-86
2023/01/02 02:10:03;;;;;;;7.70;6.97;;;8.40;99.90;;;;;;5067767;28;20218;-89
2023/01/02 02:12:31;;;;;;;8.98;7.13;;;8.40;99.90;;;;;;5035031;28;20218;-87
2023/01/02 02:14:58;;;;;;;7.78;6.88;;;8.50;99.90;;;;;;5048516;28;20218;-87
2023/01/02 02:17:40;;;;;;;7.97;7.18;;;8.50;99.90;;;;;;5070469;28;20640;-86
2023/01/02 02:20:31;;;;;;;8.77;7.47;;;8.50;99.90;;;;;;5067129;28;20699;-85
2023/01/02 02:23:35;;;;;;;8.35;7.45;;;8.50;99.90;;;;;;5072301;28;20237;-86
2023/01/02 02:26:44;;;;;;;9.05;7.70;;;8.40;99.90;;;;;;5063440;28;20222;-85
2023/01/02 02:29:42;;;;;;;9.20;7.65;;;8.40;99.90;;;;;;5022772;28;20203;-88
2023/01/02 02:32:20;;;;;;;8.88;6.97;;;8.40;99.90;;;;;;5024566;28;20237;-87
2023/01/02 02:34:57;;;;;;;8.15;7.35;;;8.40;99.90;;;;;;5068204;28;20698;-81
2023/01/02 02:37:30;;;;;;;8.18;7.38;;;8.40;99.90;;;;;;5070475;28;20209;-84
2023/01/02 02:40:09;;;;;;;8.95;7.85;;;8.40;99.90;;;;;;5078740;28;20574;-84
2023/01/02 02:42:46;;;;;;;8.02;7.18;;;8.40;99.90;;;;;;5055793;28;20199;-81
2023/01/02 02:45:23;;;;;;;8.05;7.07;;;8.40;99.90;;;;;;5070056;28;20540;-86
2023/01/02 02:47:57;;;;;;;7.82;7.03;;;8.40;99.90;;;;;;5070292;28;20198;-86
2023/01/02 02:50:32;;;;;;;7.78;7.00;;;8.40;99.90;;;;;;5068493;28;20275;-85
2023/01/02 02:53:05;;;;;;;8.23;7.43;;;8.40;99.90;;;;;;5070876;28;20209;-86
2023/01/02 02:55:38;;;;;;;8.82;7.40;;;8.40;99.90;;;;;;5071997;28;20226;-82
2023/01/02 02:58:06;;;;;;;7.80;6.95;;;8.40;99.90;;;;;;5076341;28;20198;-88
2023/01/02 03:00:34;;;;;;;8.00;7.15;;;8.40;99.90;;;;;;5064200;28;20226;-85
2023/01/02 03:03:14;;;;;;;7.93;7.13;;;8.40;99.90;;;;;;5072033;28;20663;-88
2023/01/02 03:05:47;;;;;;;8.25;6.75;;;8.40;99.90;;;;;;5069161;28;20233;-85
2023/01/02 03:08:22;;;;;;;8.32;7.13;;;8.40;99.90;;;;;;5070117;28;20210;-82
2023/01/02 03:10:56;;;;;;;7.85;7.03;;;8.40;99.90;;;;;;5070691;28;20222;-87
2023/01/02 03:13:33;;;;;;;8.05;7.25;;;8.40;99.90;;;;;;5067115;28;20226;-86
2023/01/02 03:16:08;;;;;;;7.70;7.00;;;8.40;99.90;;;;;;5073675;28;20227;-87
2023/01/02 03:18:45;;;;;;;7.82;7.03;;;8.40;99.90;;;;;;5054669;28;20253;-87
2023/01/02 03:21:18;;;;;;;7.53;6.82;;;8.40;99.90;;;;;;5056283;28;20275;-83
2023/01/02 03:23:48;;;;;;;8.52;7.72;;;8.40;99.90;;;;;;5070268;28;20232;-85
2023/01/02 03:26:19;;;;;;;7.90;7.03;;;8.40;99.90;;;;;;5048998;28;20608;-88
2023/01/02 03:28:51;;;;;;;9.10;7.63;;;8.30;99.90;;;;;;5072200;28;20199;-84
2023/01/02 03:31:21;;;;;;;8.05;7.22;;;8.40;99.90;;;;;;5073591;28;20214;-85
2023/01/02 03:33:53;;;;;;;8.35;7.53;;;8.40;99.90;;;;;;5055825;28;20222;-87
2023/01/02 03:36:26;;;;;;;9.05;8.15;;;8.30;99.90;;;;;;5070014;28;20210;-87
2023/01/02 03:39:01;;;;;;;7.63;6.93;;;8.30;99.90;;;;;;5069180;28;20288;-81
2023/01/02 03:41:33;;;;;;;7.75;6.95;;;8.30;99.90;;;;;;5072181;28;20217;-87
2023/01/02 03:44:01;;;;;;;7.78;6.72;;;8.30;99.90;;;;;;5062353;28;20683;-84
2023/01/02 03:46:33;;;;;;;7.75;6.95;;;8.30;99.90;;;;;;5071541;28;20225;-82
2023/01/02 03:49:07;;;;;;;8.48;7.68;;;8.30;99.90;;;;;;5061545;28;20229;-83
2023/01/02 03:51:36;;;;;;;7.03;6.40;;;8.30;99.90;;;;;;5073810;28;20222;-82
2023/01/02 03:54:04;;;;;;;7.60;6.85;;;8.30;99.90;;;;;;5074498;28;20218;-86
2023/01/02 03:56:42;;;;;;;7.18;6.47;;;8.30;99.90;;;;;;5074834;28;20221;-87
2023/01/02 03:59:16;;;;;;;7.60;6.63;;;8.30;99.90;;;;;;5051285;28;20244;-84
2023/01/02 04:01:49;;;;;;;6.55;5.95;;;8.30;99.90;;;;;;5069725;28;20680;-83
2023/01/02 04:04:27;;;;;;;7.07;6.25;;;8.30;99.90;;;;;;5072338;28;20230;-84
2023/01/02 04:07:00;;;;;;;6.97;6.28;;;8.30;99.90;;;;;;5066158;28;20201;-85
2023/01/02 04:09:30;;;;;;;7.65;6.85;;;8.30;99.90;;;;;;5071476;28;20195;-87
2023/01/02 04:12:02;;;;;;;7.72;6.93;;;8.30;99.90;;;;;;5072697;28;20206;-83
2023/01/02 04:14:33;;;;;;;8.27;6.72;;;8.30;99.90;;;;;;5069330;28;20218;-83
2023/01/02 04:17:05;;;;;;;7.68;6.88;;;8.30;99.90;;;;;;5074106;28;20198;-83
2023/01/02 04:19:38;;;;;;;8.02;7.28;;;8.20;99.90;;;;;;5070872;28;20233;-86
2023/01/02 04:22:10;;;;;;;8.30;7.13;;;8.20;99.90;;;;;;5019174;28;1623539;-83
2023/01/02 04:24:42;;;;;;;7.53;6.82;;;8.20;99.90;;;;;;5059990;28;20298;-88
2023/01/02 04:27:14;;;;;;;7.70;7.03;;;8.20;99.90;;;;;;5075047;28;20206;-82
2023/01/02 04:29:42;;;;;;;8.00;7.20;;;8.20;99.90;;;;;;5058535;28;21817;-85
2023/01/02 04:32:14;;;;;;;8.05;7.25;;;8.20;99.90;;;;;;5075304;28;20198;-82
2023/01/02 04:34:45;;;;;;;8.13;7.32;;;8.20;99.90;;;;;;5076196;28;20222;-81
2023/01/02 04:37:30;;;;;;;7.85;7.15;;;8.20;99.90;;;;;;5059645;28;20194;-88
2023/01/02 04:40:02;;;;;;;8.80;7.88;;;8.20;99.90;;;;;;5039345;28;20290;-83
2023/01/02 04:42:30;;;;;;;8.63;7.80;;;8.10;99.90;;;;;;5043132;28;20612;-82
2023/01/02 04:44:57;;;;;;;8.50;7.70;;;8.10;99.90;;;;;;5075283;28;20713;-84
2023/01/02 04:47:25;;;;;;;9.00;7.85;;;8.10;99.90;;;;;;5056353;28;20659;-82
2023/01/02 04:49:54;;;;;;;8.75;7.82;;;8.10;99.90;;;;;;5068857;28;20450;-82
2023/01/02 04:52:21;;;;;;;8.55;7.65;;;8.10;99.90;;;;;;5074463;28;20631;-84
2023/01/02 04:54:48;;;;;;;8.68;7.88;;;8.10;99.90;;;;;;5076217;28;20226;-81
2023/01/02 04:57:16;;;;;;;8.63;7.72;;;8.00;99.90;;;;;;5047731;28;20217;-82
2023/01/02 04:59:45;;;;;;;8.02;7.22;;;8.00;99.90;;;;;;5062517;28;20738;-81
2023/01/02 05:02:12;;;;;;;8.82;7.93;;;8.10;99.90;;;;;;5072690;28;20202;-83
2023/01/02 05:04:39;;;;;;;9.43;7.63;;;8.00;99.90;;;;;;5071651;28;20226;-81
2023/01/02 05:07:09;;;;;;;8.52;7.80;;;8.00;99.90;;;;;;5064763;28;20202;-81
2023/01/02 05:09:37;;;;;;;7.55;6.90;;;8.00;99.90;;;;;;5069240;28;20226;-82
2023/01/02 05:12:05;;;;;;;7.95;7.25;;;8.10;99.90;;;;;;5070725;28;20195;-82
2023/01/02 05:14:32;;;;;;;7.25;6.55;;;8.10;99.90;;;;;;5026617;28;20721;-80
2023/01/02 05:17:00;;;;;;;7.88;7.07;;;8.10;99.90;;;;;;5078166;28;20195;-81
2023/01/02 05:19:27;;;;;;;7.93;7.13;;;8.00;99.90;;;;;;5075899;28;20190;-84
2023/01/02 05:24:40;;;;;;;7.72;7.03;;;8.00;99.90;;;;;;5074262;28;20738;-81
2023/01/02 05:27:08;;;;;;;7.53;6.85;;;8.10;99.90;;;;;;5078631;28;20195;-84
2023/01/02 05:29:35;;;;;;;7.57;6.80;;;8.10;99.90;;;;;;5044030;28;20284;-87
2023/01/02 05:32:02;;;;;;;7.93;7.22;;;8.10;99.90;;;;;;5077694;28;20190;-82
2023/01/02 05:34:30;;;;;;;7.38;6.68;;;8.10;99.90;;;;;;5061887;28;20237;-86
2023/01/02 05:36:57;;;;;;;7.03;6.32;;;8.10;99.90;;;;;;5077748;28;20195;-85
2023/01/02 05:39:24;;;;;;;6.90;6.30;;;8.10;99.90;;;;;;5074074;28;20205;-83
2023/01/02 05:41:53;;;;;;;7.18;6.47;;;8.10;99.90;;;;;;5073545;28;20217;-82
2023/01/02 05:44:22;;;;;;;9.13;7.28;;;8.10;99.90;;;;;;5057727;28;20216;-81
2023/01/02 05:46:49;;;;;;;7.35;6.55;;;8.00;99.90;;;;;;5071202;28;20597;-81
2023/01/02 05:49:17;;;;;;;8.30;7.50;;;8.00;99.90;;;;;;5073502;28;20206;-81
2023/01/02 05:51:44;;;;;;;7.88;7.18;;;8.00;99.90;;;;;;5071698;28;20656;-80
2023/01/02 05:54:11;;;;;;;8.77;7.97;;;7.90;99.90;;;;;;5067177;28;20227;-85
2023/01/02 05:56:39;;;;;;;8.00;7.28;;;7.90;99.90;;;;;;5074729;28;20209;-82
2023/01/02 05:59:08;;;;;;;8.43;7.50;;;8.00;99.90;;;;;;5076057;28;20206;-80
2023/01/02 06:01:36;;;;;;;7.55;6.88;;;7.90;99.90;;;;;;5061258;28;20222;-82
2023/01/02 06:04:03;;;;;;;7.85;7.05;;;7.90;99.90;;;;;;5057170;28;20253;-82
2023/01/02 06:06:33;;;;;;;7.88;7.07;;;7.90;99.90;;;;;;5055481;28;20253;-81
2023/01/02 06:09:00;;;;;;;7.63;6.68;;;7.90;99.90;;;;;;5063231;28;20194;-81
2023/01/02 06:11:28;;;;;;;7.38;6.43;;;8.00;99.90;;;;;;5072767;28;20218;-82
2023/01/02 06:13:55;;;;;;;7.47;6.70;;;8.00;99.90;;;;;;5053997;28;20230;-81
2023/01/02 06:16:25;;;;;;;7.38;6.60;;;7.90;99.90;;;;;;5046343;28;20662;-82
2023/01/02 06:18:53;;;;;;;8.38;7.50;;;8.00;99.90;;;;;;5053200;28;20205;-83
2023/01/02 06:21:23;;;;;;;8.38;6.97;;;8.00;99.90;;;;;;5055310;28;20221;-83
2023/01/02 06:23:55;;;;;;;8.50;7.70;;;8.00;99.90;;;;;;5053966;28;20592;-81
2023/01/02 06:26:24;;;;;;;7.78;6.97;;;8.00;99.90;;;;;;5077893;28;20245;-82
2023/01/02 06:28:52;;;;;;;7.88;7.07;;;8.00;99.90;;;;;;5077000;28;20202;-82
2023/01/02 06:31:21;;;;;;;7.38;6.68;;;8.00;99.90;;;;;;5070489;28;20214;-80
2023/01/02 06:33:54;;;;;;;7.78;7.07;;;8.00;99.90;;;;;;5068695;28;20234;-80
2023/01/02 06:36:22;;;;;;;7.30;6.60;;;8.00;99.90;;;;;;5056624;28;20218;-81
2023/01/02 06:38:49;;;;;;;7.82;7.13;;;8.00;99.90;;;;;;5070984;28;20212;-84
2023/01/02 06:41:17;;;;;;;7.25;6.65;;;8.10;99.90;;;;;;5073762;28;20218;-81
2023/01/02 06:43:47;;;;;;;9.32;8.43;;;8.00;99.90;;;;;;5053971;28;20214;-81
2023/01/02 06:46:17;;;;;;;9.65;7.82;;;7.90;99.90;;;;;;5052706;28;20222;-82
2023/01/02 06:48:46;;;;;;;10.00;8.88;;;7.80;99.90;;;;;;5067682;28;20194;-82
2023/01/02 06:51:17;;;;;;;9.73;8.73;;;7.70;99.90;;;;;;5060788;28;20214;-81
2023/01/02 06:53:45;;;;;;;12.30;10.93;;;7.70;99.90;;;;;;5064319;28;20232;-80
2023/01/02 06:56:14;;;;;;;10.75;9.38;;;7.60;99.90;;;;;;5046559;28;20215;-83
2023/01/02 06:58:41;;;;;;;9.30;8.35;;;7.60;99.90;;;;;;5051420;28;20696;-81
2023/01/02 07:01:10;;;;;;;10.32;9.30;;;7.60;99.90;;;;;;5062138;28;20738;-83
2023/01/02 07:03:40;;;;;;;10.80;9.70;;;7.50;99.90;;;;;;5064983;28;20711;-81
2023/01/02 07:06:10;;;;;;;9.63;8.13;;;7.50;99.90;;;;;;5044173;28;20242;-81
2023/01/02 07:08:40;;;;;;;9.13;8.20;;;7.50;99.90;;;;;;5065651;28;20252;-81
2023/01/02 07:11:12;;;;;;;9.95;8.82;;;7.50;99.90;;;;;;5060579;28;20221;-81
2023/01/02 07:13:40;;;;;;;8.98;8.07;;;7.60;99.90;;;;;;5066065;28;20230;-81
2023/01/02 07:16:10;;;;;;;9.32;8.30;;;7.60;99.90;;;;;;5074936;28;20222;-88
2023/01/02 07:18:38;;;;;;;8.85;7.95;;;7.60;99.90;;;;;;5079207;28;20210;-85
2023/01/02 07:21:06;;;;;;;10.65;9.02;;;7.70;99.90;;;;;;5071308;28;20222;-80
2023/01/02 07:23:33;;;;;;;10.10;7.95;;;7.60;99.90;;;;;;5068283;28;20229;-80
2023/01/02 07:26:04;;;;;;;10.88;8.52;;;7.70;99.90;;;;;;5065942;28;20214;-84
2023/01/02 07:28:31;;;;;;;10.38;8.18;;;7.70;99.90;;;;;;5072795;28;20281;-80
2023/01/02 07:31:00;;;;;;;8.85;7.82;;;7.70;99.90;;;;;;5063341;28;20211;-81
2023/01/02 07:33:29;;;;;;;10.48;8.48;;;7.70;99.90;;;;;;5056366;28;20272;-82
2023/01/02 07:35:58;;;;;;;8.88;7.97;;;7.70;99.90;;;;;;5034154;28;20222;-82
2023/01/02 07:38:25;;;;;;;8.77;7.88;;;7.80;99.90;;;;;;5070129;28;20225;-82
2023/01/02 07:40:53;;;;;;;9.20;8.25;;;7.80;99.90;;;;;;5069409;28;20217;-80
2023/01/02 07:43:23;;;;;;;8.52;7.72;;;7.80;99.90;;;;;;5050983;28;20614;-80
2023/01/02 07:45:50;;;;;;;9.50;8.50;;;7.80;99.90;;;;;;5071340;28;20222;-80
2023/01/02 07:48:18;;;;;;;9.52;8.32;;;7.80;99.90;;;;;;5052498;28;20191;-80
2023/01/02 07:50:45;;;;;;;9.00;7.90;;;7.80;99.90;;;;;;5070483;28;20222;-81
2023/01/02 07:53:12;;;;;;;9.75;8.75;;;7.80;99.90;;;;;;5040595;28;20213;-81
2023/01/02 07:55:40;;;;;;;9.45;8.38;;;7.80;99.90;;;;;;5067428;28;20222;-82
2023/01/02 07:58:08;;;;;;;10.02;9.02;;;7.80;99.90;;;;;;5053635;28;20191;-88
2023/01/02 08:00:37;;;;;;;8.93;8.02;;;7.80;99.90;;;;;;5073962;28;20233;-84
2023/01/02 08:03:05;;;;;;;10.82;9.20;;;7.80;99.90;;;;;;5071993;28;20209;-81
2023/01/02 08:05:34;;;;;;;12.35;11.15;;;7.70;99.90;;;;;;5068545;28;20211;-87
2023/01/02 08:08:01;;;;;;;13.13;11.73;;;7.70;99.90;;;;;;5051036;28;20190;-85
2023/01/02 08:10:28;;;;;;;12.23;11.00;;;7.60;99.90;;;;;;5070178;28;20232;-83
2023/01/02 08:12:56;;;;;;;13.73;11.80;;;7.50;99.90;;;;;;5050824;28;20214;-85
2023/01/02 08:15:24;;;;;;;12.90;11.57;;;7.50;99.90;;;;;;5064878;28;20305;-85
2023/01/02 08:17:53;;;;;;;12.77;11.48;;;7.50;99.90;;;;;;5064167;28;20612;-83
2023/01/02 08:20:23;;;;;;;11.25;10.10;;;7.50;99.90;;;;;;5047918;28;20226;-82
2023/01/02 08:22:50;;;;;;;11.98;10.50;;;7.60;99.90;;;;;;5066150;28;20203;-82
2023/01/02 08:25:18;;;;;;;10.40;9.40;;;7.70;99.90;;;;;;5065459;28;20747;-89
2023/01/02 08:27:46;;;;;;;10.30;9.30;;;7.80;99.90;;;;;;5072734;28;20215;-84
2023/01/02 08:30:13;;;;;;;9.43;8.50;;;7.80;99.90;;;;;;5053803;28;20218;-83
2023/01/02 08:32:41;;;;;;;8.60;7.75;;;7.90;99.90;;;;;;5066209;28;20206;-82
2023/01/02 08:35:11;;;;;;;11.02;9.93;;;8.00;99.90;;;;;;5050245;28;20227;-86
2023/01/02 08:37:39;;;;;;;10.30;9.23;;;8.10;99.90;;;;;;5049035;28;20201;-83
2023/01/02 08:40:07;;;;;;;10.15;9.15;;;8.10;99.90;;;;;;5064627;28;20230;-82
2023/01/02 08:42:35;;;;;;;10.25;9.25;;;8.20;99.90;;;;;;5059711;28;20561;-85
2023/01/02 08:45:02;;;;;;;10.50;9.40;;;8.20;99.90;;;;;;5070677;28;20225;-83
2023/01/02 08:47:30;;;;;;;11.02;9.93;;;8.20;99.90;;;;;;5067451;28;20202;-82
2023/01/02 08:49:58;;;;;;;11.10;10.00;;;8.20;99.90;;;;;;5048924;28;20225;-82
2023/01/02 08:52:28;;;;;;;11.15;10.05;;;8.20;99.90;;;;;;5062568;28;20213;-86
2023/01/02 08:54:56;;;;;;;13.63;10.90;;;8.20;99.90;;;;;;5066430;28;20219;-83
2023/01/02 08:57:24;;;;;;;11.23;10.05;;;8.20;99.90;;;;;;5034319;28;20582;-81
2023/01/02 08:59:52;;;;;;;12.77;10.77;;;8.30;99.90;;;;;;5063501;28;20214;-84
2023/01/02 09:02:20;;;;;;;12.95;11.30;;;8.20;99.90;;;;;;5066931;28;20199;-84
2023/01/02 09:04:47;;;;;;;11.30;10.20;;;8.20;99.90;;;;;;5061914;28;20237;-84
2023/01/02 09:07:16;;;;;;;12.30;10.20;;;8.20;99.90;;;;;;5062285;28;20218;-81
2023/01/02 09:09:44;;;;;;;11.50;10.32;;;8.30;99.90;;;;;;5067157;28;20217;-83
2023/01/02 09:12:12;;;;;;;12.27;10.98;;;8.30;99.90;;;;;;5062513;28;20195;-82
2023/01/02 09:14:39;;;;;;;12.00;10.73;;;8.30;99.90;;;;;;5052080;28;20234;-83
2023/01/02 09:17:07;;;;;;;11.60;10.38;;;8.30;99.90;;;;;;5066649;28;20190;-81
2023/01/02 09:19:37;;;;;;;11.77;10.57;;;8.30;99.90;;;;;;5073264;28;20221;-85
2023/01/02 09:22:05;;;;;;;11.07;9.80;;;8.30;99.90;;;;;;5069215;28;20657;-81
2023/01/02 09:24:32;;;;;;;12.35;11.05;;;8.30;99.90;;;;;;5068372;28;20222;-81
2023/01/02 09:27:03;;;;;;;13.43;11.90;;;8.30;99.90;;;;;;5051225;28;20644;-87
2023/01/02 09:29:31;;;;;;;12.98;11.68;;;8.20;99.90;;;;;;5066499;28;20774;-85
2023/01/02 09:31:59;;;;;;;11.80;10.60;;;8.30;99.90;;;;;;5065773;28;20457;-83
2023/01/02 09:34:27;;;;;;;11.60;10.50;;;8.20;99.90;;;;;;5065552;28;20210;-81
2023/01/02 09:36:56;;;;;;;13.38;11.65;;;8.20;99.90;;;;;;5052920;28;20226;-84
2023/01/02 09:39:24;;;;;;;13.00;11.75;;;8.10;99.90;;;;;;5066902;28;20205;-89
2023/01/02 09:41:56;;;;;;;17.35;12.57;;;8.10;99.90;;;;;;5067011;28;20194;-82
2023/01/02 09:44:34;;;;;;;15.15;13.55;;;8.10;99.90;;;;;;5042125;28;20703;-84
2023/01/02 09:47:04;;;;;;;15.15;13.00;;;8.10;99.90;;;;;;5063998;28;20208;-87
2023/01/02 09:49:35;;;;;;;15.25;12.55;;;8.10;99.90;;;;;;5061813;28;20225;-84
2023/01/02 09:52:02;;;;;;;14.02;12.63;;;8.10;99.90;;;;;;5039531;28;20202;-88
2023/01/02 09:54:32;;;;;;;13.57;12.18;;;8.10;99.90;;;;;;5061565;28;20222;-84
2023/01/02 09:57:14;;;;;;;15.00;13.40;;;8.10;99.90;;;;;;5062206;28;20214;-86
2023/01/02 09:59:50;;;;;;;15.32;13.70;;;8.20;99.90;;;;;;5046413;28;20287;-85
2023/01/02 10:02:34;;;;;;;14.82;13.32;;;8.20;99.90;;;;;;5048004;28;20229;-83
2023/01/02 10:05:36;;;;;;;13.18;11.77;;;8.30;99.90;;;;;;5038988;28;20237;-84
2023/01/02 10:08:16;;;;;;;14.98;12.63;;;8.30;99.90;;;;;;5063340;28;20285;-81
2023/01/02 10:10:48;;;;;;;14.82;12.63;;;8.30;99.90;;;;;;5061983;28;20211;-83
2023/01/02 10:13:23;;;;;;;16.00;12.90;;;8.30;99.90;;;;;;5065779;28;20228;-81
2023/01/02 10:15:54;;;;;;;16.13;13.65;;;8.40;99.90;;;;;;5061526;28;20236;-90
2023/01/02 10:18:24;;;;;;;14.95;13.40;;;8.40;99.90;;;;;;5063079;28;20187;-85
2023/01/02 10:20:56;;;;;;;14.27;12.88;;;8.50;99.90;;;;;;5058875;28;21207;-87
2023/01/02 10:23:27;;;;;;;14.77;13.20;;;8.50;99.90;;;;;;5029823;28;20236;-86
2023/01/02 10:25:59;;;;;;;14.23;12.73;;;8.50;99.90;;;;;;5066088;28;20225;-82
2023/01/02 10:28:34;;;;;;;13.20;11.80;;;8.60;99.90;;;;;;5064798;28;20209;-81
2023/01/02 10:31:09;;;;;;;14.68;12.77;;;8.60;99.90;;;;;;5064919;28;20218;-85
2023/01/02 10:33:44;;;;;;;15.30;13.68;;;8.70;99.90;;;;;;5045287;28;20307;-82
2023/01/02 10:36:22;;;;;;;15.82;14.13;;;8.80;99.90;;;;;;5066107;28;20225;-85
2023/01/02 10:38:50;;;;;;;17.30;14.48;;;8.70;99.90;;;;;;5066462;28;20190;-84
2023/01/02 10:41:18;;;;;;;15.73;13.43;;;8.70;99.90;;;;;;5067173;28;20230;-88
2023/01/02 10:43:49;;;;;;;18.55;13.48;;;8.80;99.90;;;;;;5067251;28;20214;-84
2023/01/02 10:46:18;;;;;;;16.98;14.18;;;8.80;99.90;;;;;;5037711;28;20217;-86
2023/01/02 10:48:46;;;;;;;17.05;14.68;;;8.80;99.90;;;;;;5049884;28;20263;-84
2023/01/02 10:51:16;;;;;;;15.95;14.25;;;8.90;99.90;;;;;;5059286;28;20220;-88
2023/01/02 10:53:58;;;;;;;15.20;13.60;;;8.90;99.90;;;;;;5065821;28;20745;-91
2023/01/02 10:56:26;;;;;;;15.30;12.95;;;8.90;99.90;;;;;;5063836;28;20782;-86
2023/01/02 10:58:53;;;;;;;14.27;12.80;;;9.00;99.90;;;;;;5045681;28;20650;-88
2023/01/02 11:01:23;;;;;;;14.73;13.23;;;9.10;99.90;;;;;;5047178;28;20234;-85
2023/01/02 11:04:11;;;;;;;14.45;12.43;;;9.10;99.90;;;;;;5069634;28;20226;-90
2023/01/02 11:06:51;;;;;;;16.10;14.40;;;9.20;99.90;;;;;;5070682;28;20244;-84
2023/01/02 11:09:20;;;;;;;15.88;14.27;;;9.20;99.90;;;;;;5069188;28;20379;-86
2023/01/02 11:11:53;;;;;;;16.88;14.18;;;9.20;99.90;;;;;;5069981;28;20213;-84
2023/01/02 11:14:31;;;;;;;17.08;15.18;;;9.20;99.90;;;;;;5052151;28;20214;-82
2023/01/02 11:17:05;;;;;;;16.38;13.85;;;9.20;99.90;;;;;;5061001;28;20248;-83
2023/01/02 11:19:40;;;;;;;16.40;14.43;;;9.20;99.90;;;;;;5052219;28;20779;-79
2023/01/02 11:22:08;;;;;;;15.10;13.50;;;9.20;99.90;;;;;;5055282;28;20233;-82
2023/01/02 11:24:55;;;;;;;15.40;13.02;;;9.30;99.90;;;;;;5064002;28;20233;-82
2023/01/02 11:27:23;;;;;;;15.93;13.90;;;9.30;99.90;;;;;;5069388;28;20640;-80
2023/01/02 11:29:51;;;;;;;15.25;13.30;;;9.40;99.90;;;;;;5047111;28;20709;-83
2023/01/02 11:32:27;;;;;;;16.52;13.80;;;9.40;99.90;;;;;;5070395;28;21040;-86
2023/01/02 11:34:57;;;;;;;14.70;12.80;;;9.40;99.90;;;;;;5068417;28;20257;-81
2023/01/02 11:37:26;;;;;;;14.25;12.75;;;9.40;99.90;;;;;;5066805;28;20221;-85
2023/01/02 11:40:04;;;;;;;16.38;12.57;;;9.50;99.90;;;;;;5048850;28;20999;-89
2023/01/02 11:45:23;;;;;;;13.27;11.95;;;9.50;99.90;;;;;;5073902;28;20818;-87
2023/01/02 11:47:55;;;;;;;12.70;11.40;;;9.50;99.90;;;;;;5083910;28;20194;-91
2023/01/02 11:50:25;;;;;;;13.88;12.35;;;9.50;99.90;;;;;;5085365;28;20451;-93
2023/01/02 11:53:04;;;;;;;15.50;13.30;;;9.40;99.90;;;;;;5073166;28;20212;-91
2023/01/02 11:55:45;;;;;;;15.20;12.63;;;9.40;99.90;;;;;;5091669;28;20334;-92
2023/01/02 11:58:20;;;;;;;14.68;13.10;;;9.30;99.90;;;;;;5065145;28;20201;-90
2023/01/02 12:00:51;;;;;;;14.02;12.52;;;9.20;99.90;;;;;;5088637;28;20213;-91
2023/01/02 12:03:24;;;;;;;13.40;12.00;;;9.20;99.90;;;;;;5086732;28;20210;-89
2023/01/02 12:06:07;;;;;;;16.42;14.15;;;9.20;99.90;;;;;;5087041;28;20213;-89
2023/01/02 12:08:45;;;;;;;16.35;14.68;;;9.10;99.90;;;;;;5056721;28;20171;-91
2023/01/02 12:11:23;;;;;;;26.00;23.60;;;9.10;99.90;;;;;;5088357;28;20304;-91
2023/01/02 12:14:01;;;;;;;20.73;18.70;;;9.20;99.90;;;;;;5082285;28;20199;-91
2023/01/02 12:16:38;;;;;;;19.60;17.17;;;9.10;99.90;;;;;;5086337;28;20301;-91
2023/01/02 12:19:22;;;;;;;20.48;18.52;;;9.00;99.90;;;;;;5082722;28;20186;-90
2023/01/02 12:21:58;;;;;;;19.80;17.80;;;9.00;99.90;;;;;;5086505;28;20214;-90
2023/01/02 12:24:38;;;;;;;18.23;16.30;;;9.00;99.90;;;;;;5066710;28;20216;-91
2023/01/02 12:27:11;;;;;;;18.42;15.80;;;9.00;99.90;;;;;;5081372;28;20198;-90
2023/01/02 12:29:56;;;;;;;16.42;14.73;;;9.00;99.90;;;;;;5084370;28;20221;-90
2023/01/02 12:32:50;;;;;;;16.02;14.32;;;9.00;99.90;;;;;;5085579;28;20605;-89
2023/01/02 12:35:36;;;;;;;20.17;15.10;;;9.10;99.90;;;;;;5083746;28;20226;-90
2023/01/02 12:38:07;;;;;;;19.05;14.93;;;9.10;99.90;;;;;;5083472;28;20190;-91
2023/01/02 12:40:47;;;;;;;15.65;13.55;;;9.10;99.90;;;;;;5083866;28;20210;-91
2023/01/02 12:43:55;;;;;;;13.40;12.00;;;9.20;99.90;;;;;;5083849;28;20217;-91
2023/01/02 12:46:34;;;;;;;15.75;13.05;;;9.20;99.90;;;;;;5080882;28;20210;-90
2023/01/02 12:49:31;;;;;;;13.05;11.70;;;9.20;99.90;;;;;;5085727;28;20186;-90
2023/01/02 12:52:08;;;;;;;14.93;12.40;;;9.20;99.90;;;;;;5070101;28;20285;-91
2023/01/02 12:54:49;;;;;;;13.48;12.05;;;9.20;99.90;;;;;;5081773;28;20238;-90
2023/01/02 12:57:24;;;;;;;13.77;11.65;;;9.20;99.90;;;;;;5084155;28;20194;-91
2023/01/02 13:00:15;;;;;;;15.30;11.75;;;9.20;99.90;;;;;;5088395;28;20304;-90
2023/01/02 13:03:00;;;;;;;12.65;11.15;;;9.20;99.90;;;;;;5083927;28;20184;-91
2023/01/02 13:05:34;;;;;;;12.02;10.77;;;9.20;99.90;;;;;;5085366;28;20220;-91
2023/01/02 13:08:07;;;;;;;12.27;11.07;;;9.20;99.90;;;;;;5081090;28;20178;-91
2023/01/02 13:10:36;;;;;;;11.88;10.68;;;9.30;99.90;;;;;;5084917;28;20214;-89
2023/01/02 13:13:03;;;;;;;12.57;10.85;;;9.30;99.90;;;;;;5087127;28;20254;-91
2023/01/02 13:15:35;;;;;;;11.70;10.50;;;9.30;99.90;;;;;;5084645;28;20241;-91